createdAt,value
2023-04-26T00:00:55.122Z,95014.00
2023-04-26T00:01:55.116Z,95012.00
2023-04-26T00:02:55.234Z,95014.00
2023-04-26T00:03:55.242Z,95010.00
2023-04-26T00:04:55.374Z,95012.00
2023-04-26T00:05:55.202Z,95008.00
2023-04-26T00:06:55.120Z,95010.00
2023-04-26T00:07:55.119Z,95010.00
2023-04-26T00:08:55.350Z,95008.00
2023-04-26T00:09:55.086Z,95008.00
2023-04-26T00:10:55.082Z,95006.00
2023-04-26T00:11:57.450Z,95004.00
2023-04-26T00:12:54.718Z,95008.00
2023-04-26T00:13:54.702Z,95008.00
2023-04-26T00:14:54.694Z,95010.00
2023-04-26T00:15:54.709Z,95008.00
2023-04-26T00:16:54.723Z,95010.00
2023-04-26T00:17:54.760Z,95008.00
2023-04-26T00:18:55.022Z,95008.00
2023-04-26T00:19:54.675Z,95008.00
2023-04-26T00:20:54.681Z,95002.00
2023-04-26T00:21:54.665Z,95002.00
2023-04-26T00:22:54.667Z,95004.00
2023-04-26T00:23:54.677Z,95000.00
2023-04-26T00:24:54.658Z,95004.00
2023-04-26T00:25:54.648Z,95006.00
2023-04-26T00:26:54.666Z,95008.00
2023-04-26T00:27:54.647Z,95008.00
2023-04-26T00:28:54.953Z,95008.00
2023-04-26T00:29:54.641Z,95008.00
2023-04-26T00:30:54.628Z,95008.00
2023-04-26T00:31:54.655Z,95008.00
2023-04-26T00:32:54.650Z,95010.00
2023-04-26T00:33:54.631Z,95010.00
2023-04-26T00:34:54.616Z,95010.00
2023-04-26T00:35:54.601Z,95006.00
2023-04-26T00:36:54.647Z,95008.00
2023-04-26T00:37:54.617Z,95002.00
2023-04-26T00:38:54.928Z,95004.00
2023-04-26T00:39:55.091Z,95006.00
2023-04-26T00:40:55.124Z,95006.00
2023-04-26T00:41:55.121Z,95008.00
2023-04-26T00:42:55.229Z,95006.00
2023-04-26T00:43:55.132Z,95006.00
2023-04-26T00:44:55.135Z,95006.00
2023-04-26T00:45:55.169Z,95004.00
2023-04-26T00:46:55.128Z,95002.00
2023-04-26T00:47:55.179Z,95006.00
2023-04-26T00:48:55.127Z,95004.00
2023-04-26T00:49:55.156Z,95004.00
2023-04-26T00:50:55.196Z,95004.00
2023-04-26T00:51:55.242Z,95004.00
2023-04-26T00:52:55.966Z,95002.00
2023-04-26T00:53:55.338Z,95002.00
2023-04-26T00:54:55.363Z,95006.00
2023-04-26T00:55:55.483Z,95006.00
2023-04-26T00:56:55.972Z,95006.00
2023-04-26T00:57:56.467Z,95006.00
2023-04-26T00:58:55.608Z,95006.00
2023-04-26T00:59:55.584Z,95006.00
2023-04-26T01:00:55.643Z,95006.00
2023-04-26T01:01:56.589Z,95008.00
2023-04-26T01:02:55.798Z,95006.00
2023-04-26T01:03:56.610Z,95006.00
2023-04-26T01:04:55.810Z,95006.00
2023-04-26T01:05:55.897Z,95002.00
2023-04-26T01:06:55.859Z,95002.00
2023-04-26T01:07:55.905Z,95000.00
2023-04-26T01:08:55.939Z,95000.00
2023-04-26T01:09:55.996Z,95000.00
2023-04-26T01:10:56.040Z,95000.00
2023-04-26T01:11:56.088Z,95004.00
2023-04-26T01:12:56.120Z,94998.00
2023-04-26T01:13:56.165Z,95000.00
2023-04-26T01:14:56.251Z,95002.00
2023-04-26T01:15:56.252Z,95004.00
2023-04-26T01:16:56.385Z,95002.00
2023-04-26T01:17:56.439Z,94998.00
2023-04-26T01:18:56.375Z,94998.00
2023-04-26T01:19:56.411Z,94994.00
2023-04-26T01:20:56.435Z,94998.00
2023-04-26T01:21:56.482Z,94992.00
2023-04-26T01:22:56.537Z,94996.00
2023-04-26T01:23:56.568Z,94992.00
2023-04-26T01:24:56.609Z,94994.00
2023-04-26T01:25:56.654Z,94994.00
2023-04-26T01:26:56.691Z,94994.00
2023-04-26T01:27:56.744Z,94998.00
2023-04-26T01:28:56.777Z,94998.00
2023-04-26T01:29:57.476Z,94998.00
2023-04-26T01:30:56.971Z,94998.00
2023-04-26T01:31:56.903Z,94998.00
2023-04-26T01:32:57.024Z,94994.00
2023-04-26T01:33:57.480Z,94992.00
2023-04-26T01:34:57.025Z,94988.00
2023-04-26T01:35:57.092Z,94988.00
2023-04-26T01:36:57.974Z,94990.00
2023-04-26T01:37:57.162Z,94990.00
2023-04-26T01:38:57.192Z,94990.00
2023-04-26T01:39:57.237Z,94990.00
2023-04-26T01:40:57.279Z,94990.00
2023-04-26T01:42:03.975Z,94990.00
2023-04-26T01:42:57.300Z,94992.00
2023-04-26T01:43:57.285Z,94988.00
2023-04-26T01:44:57.280Z,94988.00
2023-04-26T01:45:57.497Z,94988.00
2023-04-26T01:46:57.281Z,94988.00
2023-04-26T01:47:57.283Z,94984.00
2023-04-26T01:48:57.228Z,94990.00
2023-04-26T01:49:57.201Z,94992.00
2023-04-26T01:50:57.977Z,94994.00
2023-04-26T01:51:57.193Z,94992.00
2023-04-26T01:52:57.177Z,94998.00
2023-04-26T01:53:57.981Z,94998.00
2023-04-26T01:54:57.152Z,95002.00
2023-04-26T01:55:57.166Z,95000.00
2023-04-26T01:56:57.140Z,95000.00
2023-04-26T01:57:57.127Z,95000.00
2023-04-26T01:58:57.123Z,94998.00
2023-04-26T01:59:57.118Z,94998.00
2023-04-26T02:00:57.163Z,94998.00
2023-04-26T02:01:57.235Z,94996.00
2023-04-26T02:02:57.328Z,94996.00
2023-04-26T02:03:57.267Z,94996.00
2023-04-26T02:05:00.285Z,94998.00
2023-04-26T02:06:00.177Z,94996.00
2023-04-26T02:06:57.491Z,94996.00
2023-04-26T02:07:57.982Z,94994.00
2023-04-26T02:08:57.271Z,94992.00
2023-04-26T02:09:57.270Z,94992.00
2023-04-26T02:10:57.248Z,94994.00
2023-04-26T02:11:57.252Z,94996.00
2023-04-26T02:12:57.237Z,94994.00
2023-04-26T02:13:57.245Z,94996.00
2023-04-26T02:14:57.497Z,95000.00
2023-04-26T02:15:57.248Z,95000.00
2023-04-26T02:16:57.987Z,95000.00
2023-04-26T02:17:57.225Z,94998.00
2023-04-26T02:18:57.222Z,94998.00
2023-04-26T02:19:57.190Z,94998.00
2023-04-26T02:20:57.163Z,95002.00
2023-04-26T02:21:57.228Z,95000.00
2023-04-26T02:22:57.145Z,94996.00
2023-04-26T02:23:57.994Z,94998.00
2023-04-26T02:24:57.126Z,94996.00
2023-04-26T02:25:57.148Z,94994.00
2023-04-26T02:26:57.188Z,94998.00
2023-04-26T02:27:57.230Z,94998.00
2023-04-26T02:28:57.269Z,95000.00
2023-04-26T02:29:57.304Z,95002.00
2023-04-26T02:30:57.379Z,95000.00
2023-04-26T02:31:57.409Z,95000.00
2023-04-26T02:32:57.453Z,95000.00
2023-04-26T02:33:57.451Z,95000.00
2023-04-26T02:34:57.508Z,94998.00
2023-04-26T02:35:57.548Z,94998.00
2023-04-26T02:36:57.569Z,94992.00
2023-04-26T02:37:57.619Z,94996.00
2023-04-26T02:38:57.651Z,94996.00
2023-04-26T02:39:57.688Z,95000.00
2023-04-26T02:41:00.509Z,95002.00
2023-04-26T02:41:57.726Z,95004.00
2023-04-26T02:42:57.718Z,95002.00
2023-04-26T02:43:57.703Z,95002.00
2023-04-26T02:44:57.701Z,95002.00
2023-04-26T02:45:57.690Z,95002.00
2023-04-26T02:46:57.713Z,95006.00
2023-04-26T02:47:57.713Z,95006.00
2023-04-26T02:48:57.678Z,95006.00
2023-04-26T02:49:57.658Z,95008.00
2023-04-26T02:50:57.692Z,95002.00
2023-04-26T02:51:57.656Z,95006.00
2023-04-26T02:52:57.636Z,95002.00
2023-04-26T02:53:57.627Z,95002.00
2023-04-26T02:55:00.504Z,95002.00
2023-04-26T02:55:57.598Z,95002.00
2023-04-26T02:56:57.576Z,95002.00
2023-04-26T02:57:57.574Z,95002.00
2023-04-26T02:58:57.558Z,95000.00
2023-04-26T02:59:57.549Z,94996.00
2023-04-26T03:00:59.504Z,94994.00
2023-04-26T03:01:57.541Z,94994.00
2023-04-26T03:04:15.550Z,94992.00
2023-04-26T03:05:16.402Z,94996.00
2023-04-26T03:06:16.548Z,94996.00
2023-04-26T03:07:23.088Z,94996.00
2023-04-26T03:08:16.657Z,94996.00
2023-04-26T03:09:16.373Z,94998.00
2023-04-26T03:10:16.369Z,94994.00
2023-04-26T03:11:16.365Z,94992.00
2023-04-26T03:12:16.368Z,94994.00
2023-04-26T03:13:16.362Z,94994.00
2023-04-26T03:14:16.351Z,94994.00
2023-04-26T03:15:16.369Z,94992.00
2023-04-26T03:16:16.408Z,94990.00
2023-04-26T03:17:16.346Z,94992.00
2023-04-26T03:18:16.354Z,94992.00
2023-04-26T03:19:16.343Z,94992.00
2023-04-26T03:20:17.101Z,94992.00
2023-04-26T03:21:16.326Z,94990.00
2023-04-26T03:22:16.445Z,94992.00
2023-04-26T03:23:16.310Z,94992.00
2023-04-26T03:24:16.305Z,94988.00
2023-04-26T03:25:16.294Z,94988.00
2023-04-26T03:26:16.285Z,94990.00
2023-04-26T03:27:16.292Z,94990.00
2023-04-26T03:28:16.333Z,94992.00
2023-04-26T03:29:16.364Z,94994.00
2023-04-26T03:30:16.402Z,94994.00
2023-04-26T03:31:16.440Z,94996.00
2023-04-26T03:32:16.565Z,94994.00
2023-04-26T03:33:16.519Z,94998.00
2023-04-26T03:34:16.554Z,94998.00
2023-04-26T03:35:16.599Z,94998.00
2023-04-26T03:36:16.628Z,95000.00
2023-04-26T03:37:17.601Z,95000.00
2023-04-26T03:38:16.721Z,94996.00
2023-04-26T03:39:16.744Z,95000.00
2023-04-26T03:40:16.776Z,95004.00
2023-04-26T03:41:16.810Z,95006.00
2023-04-26T03:42:16.848Z,95008.00
2023-04-26T03:43:23.610Z,95008.00
2023-04-26T03:44:17.134Z,95008.00
2023-04-26T03:45:16.849Z,95008.00
2023-04-26T03:46:17.645Z,95006.00
2023-04-26T03:47:16.842Z,95004.00
2023-04-26T03:48:16.846Z,95004.00
2023-04-26T03:49:16.863Z,95004.00
2023-04-26T03:50:16.808Z,95004.00
2023-04-26T03:51:16.797Z,95002.00
2023-04-26T03:52:17.609Z,95008.00
2023-04-26T03:53:16.783Z,95012.00
2023-04-26T03:54:16.792Z,95014.00
2023-04-26T03:55:16.764Z,95012.00
2023-04-26T03:56:16.756Z,95018.00
2023-04-26T03:57:16.750Z,95016.00
2023-04-26T03:59:28.391Z,95016.00
2023-04-26T04:00:31.882Z,95016.00
2023-04-26T04:01:29.233Z,95018.00
2023-04-26T04:02:29.424Z,95016.00
2023-04-26T04:03:29.409Z,95016.00
2023-04-26T04:04:29.383Z,95016.00
2023-04-26T04:05:36.053Z,95016.00
2023-04-26T04:06:29.175Z,95018.00
2023-04-26T04:07:35.884Z,95018.00
2023-04-26T04:08:29.883Z,95020.00
2023-04-26T04:09:29.509Z,95021.00
2023-04-26T04:10:29.137Z,95018.00
2023-04-26T04:11:29.131Z,95020.00
2023-04-26T04:12:29.093Z,95020.00
2023-04-26T04:13:35.897Z,95021.00
2023-04-26T04:14:29.392Z,95025.00
2023-04-26T04:15:29.993Z,95023.00
2023-04-26T04:16:29.109Z,95023.00
2023-04-26T04:17:29.042Z,95023.00
2023-04-26T04:18:29.011Z,95023.00
2023-04-26T04:19:29.013Z,95025.00
2023-04-26T04:20:28.986Z,95027.00
2023-04-26T04:21:29.884Z,95027.00
2023-04-26T04:22:28.965Z,95027.00
2023-04-26T04:23:35.885Z,95029.00
2023-04-26T04:24:28.948Z,95031.00
2023-04-26T04:25:28.959Z,95031.00
2023-04-26T04:26:28.954Z,95031.00
2023-04-26T04:27:28.921Z,95031.00
2023-04-26T04:28:28.910Z,95035.00
2023-04-26T04:29:29.400Z,95031.00
2023-04-26T04:30:28.898Z,95035.00
2023-04-26T04:31:28.924Z,95039.00
2023-04-26T04:32:29.167Z,95043.00
2023-04-26T04:33:29.120Z,95043.00
2023-04-26T04:34:29.125Z,95043.00
2023-04-26T04:35:29.144Z,95041.00
2023-04-26T04:36:29.118Z,95041.00
2023-04-26T04:37:29.120Z,95043.00
2023-04-26T04:38:29.123Z,95039.00
2023-04-26T04:39:31.894Z,95043.00
2023-04-26T04:40:29.127Z,95041.00
2023-04-26T04:41:29.199Z,95045.00
2023-04-26T04:42:29.182Z,95045.00
2023-04-26T04:43:28.979Z,95047.00
2023-04-26T04:44:29.488Z,95045.00
2023-04-26T04:45:28.899Z,95045.00
2023-04-26T04:46:28.914Z,95047.00
2023-04-26T04:47:28.916Z,95049.00
2023-04-26T04:48:28.869Z,95051.00
2023-04-26T04:49:28.871Z,95055.00
2023-04-26T04:50:28.851Z,95053.00
2023-04-26T04:51:28.908Z,95053.00
2023-04-26T04:52:28.848Z,95053.00
2023-04-26T04:53:29.414Z,95053.00
2023-04-26T04:54:29.399Z,95057.00
2023-04-26T04:55:28.817Z,95055.00
2023-04-26T04:56:28.817Z,95059.00
2023-04-26T04:57:28.845Z,95059.00
2023-04-26T04:58:28.799Z,95057.00
2023-04-26T04:59:28.785Z,95057.00
2023-04-26T05:00:28.928Z,95057.00
2023-04-26T05:01:29.413Z,95057.00
2023-04-26T05:02:28.809Z,95055.00
2023-04-26T05:03:28.864Z,95055.00
2023-04-26T05:04:28.925Z,95057.00
2023-04-26T05:05:28.787Z,95059.00
2023-04-26T05:06:28.818Z,95065.00
2023-04-26T05:07:29.418Z,95067.00
2023-04-26T05:08:29.411Z,95069.00
2023-04-26T05:09:28.928Z,95069.00
2023-04-26T05:10:28.966Z,95071.00
2023-04-26T05:11:29.909Z,95071.00
2023-04-26T05:12:29.029Z,95075.00
2023-04-26T05:13:29.089Z,95076.00
2023-04-26T05:14:29.417Z,95076.00
2023-04-26T05:15:35.598Z,95078.00
2023-04-26T05:16:29.458Z,95080.00
2023-04-26T05:17:29.162Z,95080.00
2023-04-26T05:18:29.125Z,95080.00
2023-04-26T05:19:29.924Z,95080.00
2023-04-26T05:20:29.931Z,95086.00
2023-04-26T05:21:29.445Z,95084.00
2023-04-26T05:22:29.134Z,95088.00
2023-04-26T05:23:29.124Z,95082.00
2023-04-26T05:24:29.136Z,95084.00
2023-04-26T05:25:29.941Z,95088.00
2023-04-26T05:26:29.123Z,95086.00
2023-04-26T05:27:29.070Z,95086.00
2023-04-26T05:28:29.054Z,95082.00
2023-04-26T05:29:29.161Z,95082.00
2023-04-26T05:30:29.429Z,95082.00
2023-04-26T05:31:29.097Z,95084.00
2023-04-26T05:32:29.020Z,95086.00
2023-04-26T05:33:30.186Z,95086.00
2023-04-26T05:34:29.192Z,95086.00
2023-04-26T05:35:29.432Z,95086.00
2023-04-26T05:36:30.072Z,95084.00
2023-04-26T05:37:28.964Z,95084.00
2023-04-26T05:38:28.964Z,95082.00
2023-04-26T05:39:28.955Z,95080.00
2023-04-26T05:40:29.438Z,95084.00
2023-04-26T05:41:28.987Z,95088.00
2023-04-26T05:42:28.998Z,95086.00
2023-04-26T05:43:29.020Z,95088.00
2023-04-26T05:44:29.023Z,95094.00
2023-04-26T05:45:29.064Z,95092.00
2023-04-26T05:46:29.065Z,95088.00
2023-04-26T05:47:29.075Z,95090.00
2023-04-26T05:48:29.030Z,95090.00
2023-04-26T05:49:29.045Z,95092.00
2023-04-26T05:50:29.455Z,95092.00
2023-04-26T05:51:29.037Z,95092.00
2023-04-26T05:52:29.039Z,95094.00
2023-04-26T05:53:29.464Z,95092.00
2023-04-26T05:54:29.033Z,95094.00
2023-04-26T05:55:29.440Z,95090.00
2023-04-26T05:56:29.036Z,95094.00
2023-04-26T05:57:29.093Z,95096.00
2023-04-26T05:58:29.465Z,95098.00
2023-04-26T05:59:29.055Z,95098.00
2023-04-26T06:00:32.240Z,95100.00
2023-04-26T06:01:28.995Z,95098.00
2023-04-26T06:02:29.587Z,95100.00
2023-04-26T06:03:29.388Z,95098.00
2023-04-26T06:04:29.114Z,95098.00
2023-04-26T06:05:29.287Z,95096.00
2023-04-26T06:06:28.965Z,95098.00
2023-04-26T06:07:28.938Z,95098.00
2023-04-26T06:08:28.928Z,95098.00
2023-04-26T06:09:28.882Z,95098.00
2023-04-26T06:10:28.970Z,95102.00
2023-04-26T06:11:28.856Z,95098.00
2023-04-26T06:12:28.845Z,95104.00
2023-04-26T06:13:28.824Z,95104.00
2023-04-26T06:14:30.741Z,95104.00
2023-04-26T06:15:28.961Z,95104.00
2023-04-26T06:16:28.928Z,95106.00
2023-04-26T06:17:28.764Z,95106.00
2023-04-26T06:18:28.732Z,95108.00
2023-04-26T06:19:28.715Z,95108.00
2023-04-26T06:20:29.573Z,95108.00
2023-04-26T06:21:29.450Z,95110.00
2023-04-26T06:22:28.673Z,95110.00
2023-04-26T06:23:28.668Z,95110.00
2023-04-26T06:24:30.484Z,95110.00
2023-04-26T06:25:28.630Z,95110.00
2023-04-26T06:26:28.947Z,95110.00
2023-04-26T06:27:28.612Z,95112.00
2023-04-26T06:28:28.596Z,95112.00
2023-04-26T06:29:28.570Z,95108.00
2023-04-26T06:30:28.600Z,95110.00
2023-04-26T06:31:28.574Z,95112.00
2023-04-26T06:32:28.605Z,95110.00
2023-04-26T06:33:28.512Z,95110.00
2023-04-26T06:34:28.487Z,95110.00
2023-04-26T06:35:28.950Z,95110.00
2023-04-26T06:36:28.480Z,95106.00
2023-04-26T06:37:28.461Z,95108.00
2023-04-26T06:38:28.681Z,95110.00
2023-04-26T06:39:28.426Z,95108.00
2023-04-26T06:40:28.411Z,95108.00
2023-04-26T06:41:28.974Z,95110.00
2023-04-26T06:42:28.951Z,95112.00
2023-04-26T06:43:28.371Z,95110.00
2023-04-26T06:44:28.360Z,95112.00
2023-04-26T06:45:28.460Z,95114.00
2023-04-26T06:46:28.369Z,95114.00
2023-04-26T06:47:28.325Z,95114.00
2023-04-26T06:48:28.341Z,95114.00
2023-04-26T06:49:28.976Z,95116.00
2023-04-26T06:50:28.959Z,95116.00
2023-04-26T06:51:28.266Z,95118.00
2023-04-26T06:52:28.265Z,95120.00
2023-04-26T06:53:30.964Z,95120.00
2023-04-26T06:54:28.230Z,95120.00
2023-04-26T06:55:28.479Z,95118.00
2023-04-26T06:56:28.205Z,95118.00
2023-04-26T06:57:28.184Z,95120.00
2023-04-26T06:58:28.163Z,95120.00
2023-04-26T06:59:28.156Z,95120.00
2023-04-26T07:00:28.996Z,95120.00
2023-04-26T07:01:28.135Z,95120.00
2023-04-26T07:02:28.612Z,95123.00
2023-04-26T07:03:28.229Z,95120.00
2023-04-26T07:04:28.299Z,95122.00
2023-04-26T07:05:28.061Z,95118.00
2023-04-26T07:06:28.066Z,95116.00
2023-04-26T07:07:28.472Z,95118.00
2023-04-26T07:08:28.672Z,95116.00
2023-04-26T07:09:28.095Z,95114.00
2023-04-26T07:10:28.018Z,95114.00
2023-04-26T07:11:27.983Z,95118.00
2023-04-26T07:12:29.501Z,95116.00
2023-04-26T07:13:28.190Z,95112.00
2023-04-26T07:14:28.030Z,95112.00
2023-04-26T07:15:28.220Z,95112.00
2023-04-26T07:16:29.111Z,95110.00
2023-04-26T07:17:28.552Z,95110.00
2023-04-26T07:18:28.481Z,95112.00
2023-04-26T07:19:28.065Z,95110.00
2023-04-26T07:20:28.093Z,95114.00
2023-04-26T07:21:28.065Z,95114.00
2023-04-26T07:22:28.075Z,95114.00
2023-04-26T07:23:28.476Z,95114.00
2023-04-26T07:24:28.087Z,95116.00
2023-04-26T07:25:28.103Z,95116.00
2023-04-26T07:26:28.096Z,95116.00
2023-04-26T07:27:28.399Z,95116.00
2023-04-26T07:28:29.977Z,95112.00
2023-04-26T07:29:28.076Z,95112.00
2023-04-26T07:30:28.685Z,95108.00
2023-04-26T07:31:29.477Z,95112.00
2023-04-26T07:32:28.144Z,95110.00
2023-04-26T07:33:29.045Z,95110.00
2023-04-26T07:34:27.998Z,95110.00
2023-04-26T07:35:28.012Z,95112.00
2023-04-26T07:36:28.056Z,95110.00
2023-04-26T07:37:27.949Z,95110.00
2023-04-26T07:38:27.979Z,95108.00
2023-04-26T07:39:27.982Z,95110.00
2023-04-26T07:40:28.554Z,95110.00
2023-04-26T07:41:28.120Z,95112.00
2023-04-26T07:42:28.293Z,95108.00
2023-04-26T07:43:28.137Z,95106.00
2023-04-26T07:44:29.168Z,95108.00
2023-04-26T07:45:28.548Z,95110.00
2023-04-26T07:46:28.244Z,95114.00
2023-04-26T07:47:29.330Z,95116.00
2023-04-26T07:48:28.343Z,95118.00
2023-04-26T07:49:28.374Z,95116.00
2023-04-26T07:50:28.492Z,95116.00
2023-04-26T07:51:28.426Z,95112.00
2023-04-26T07:52:28.608Z,95114.00
2023-04-26T07:53:28.475Z,95118.00
2023-04-26T07:54:28.504Z,95116.00
2023-04-26T07:55:28.983Z,95116.00
2023-04-26T07:56:28.612Z,95120.00
2023-04-26T07:57:28.680Z,95118.00
2023-04-26T07:58:28.650Z,95114.00
2023-04-26T07:59:29.490Z,95118.00
2023-04-26T08:00:29.491Z,95114.00
2023-04-26T08:01:28.722Z,95116.00
2023-04-26T08:02:43.563Z,95118.00
2023-04-26T08:03:28.853Z,95114.00
2023-04-26T08:04:29.601Z,95116.00
2023-04-26T08:05:29.322Z,95114.00
2023-04-26T08:06:28.668Z,95114.00
2023-04-26T08:07:28.665Z,95114.00
2023-04-26T08:08:28.669Z,95112.00
2023-04-26T08:09:28.630Z,95112.00
2023-04-26T08:10:28.991Z,95112.00
2023-04-26T08:11:28.660Z,95110.00
2023-04-26T08:12:28.597Z,95112.00
2023-04-26T08:13:29.540Z,95112.00
2023-04-26T08:14:28.566Z,95112.00
2023-04-26T08:15:28.991Z,95108.00
2023-04-26T08:16:28.556Z,95104.00
2023-04-26T08:17:28.530Z,95108.00
2023-04-26T08:18:28.516Z,95104.00
2023-04-26T08:19:30.101Z,95104.00
2023-04-26T08:20:28.998Z,95104.00
2023-04-26T08:21:28.673Z,95108.00
2023-04-26T08:22:28.731Z,95110.00
2023-04-26T08:23:28.749Z,95110.00
2023-04-26T08:24:28.908Z,95108.00
2023-04-26T08:25:28.997Z,95108.00
2023-04-26T08:26:28.818Z,95108.00
2023-04-26T08:27:28.855Z,95106.00
2023-04-26T08:28:28.874Z,95106.00
2023-04-26T08:29:29.491Z,95104.00
2023-04-26T08:30:28.930Z,95104.00
2023-04-26T08:31:29.574Z,95108.00
2023-04-26T08:32:29.257Z,95106.00
2023-04-26T08:33:31.996Z,95100.00
2023-04-26T08:34:29.202Z,95100.00
2023-04-26T08:35:29.516Z,95106.00
2023-04-26T08:36:31.528Z,95108.00
2023-04-26T08:37:29.564Z,95102.00
2023-04-26T08:38:28.928Z,95100.00
2023-04-26T08:39:28.917Z,95100.00
2023-04-26T08:40:29.149Z,95098.00
2023-04-26T08:41:28.997Z,95096.00
2023-04-26T08:42:28.887Z,95094.00
2023-04-26T08:43:28.840Z,95092.00
2023-04-26T08:44:28.886Z,95092.00
2023-04-26T08:45:29.173Z,95092.00
2023-04-26T08:46:28.814Z,95088.00
2023-04-26T08:47:28.864Z,95090.00
2023-04-26T08:48:28.773Z,95090.00
2023-04-26T08:49:28.748Z,95088.00
2023-04-26T08:50:29.017Z,95088.00
2023-04-26T08:51:28.716Z,95088.00
2023-04-26T08:52:29.515Z,95086.00
2023-04-26T08:53:28.689Z,95084.00
2023-04-26T08:54:27.658Z,95086.00
2023-04-26T08:55:29.011Z,95080.00
2023-04-26T08:56:28.656Z,95084.00
2023-04-26T08:57:28.615Z,95082.00
2023-04-26T08:58:28.597Z,95082.00
2023-04-26T08:59:28.655Z,95080.00
2023-04-26T09:00:29.031Z,95080.00
2023-04-26T09:01:29.041Z,95082.00
2023-04-26T09:02:28.698Z,95082.00
2023-04-26T09:03:28.742Z,95082.00
2023-04-26T09:04:28.839Z,95078.00
2023-04-26T09:05:28.675Z,95076.00
2023-04-26T09:06:28.721Z,95075.00
2023-04-26T09:07:28.924Z,95073.00
2023-04-26T09:08:28.737Z,95073.00
2023-04-26T09:09:29.717Z,95075.00
2023-04-26T09:10:29.043Z,95075.00
2023-04-26T09:11:28.769Z,95073.00
2023-04-26T09:12:28.903Z,95071.00
2023-04-26T09:13:28.808Z,95069.00
2023-04-26T09:14:28.883Z,95073.00
2023-04-26T09:15:29.015Z,95071.00
2023-04-26T09:16:28.872Z,95071.00
2023-04-26T09:17:29.182Z,95071.00
2023-04-26T09:18:28.811Z,95071.00
2023-04-26T09:19:28.813Z,95067.00
2023-04-26T09:20:28.807Z,95067.00
2023-04-26T09:21:29.016Z,95067.00
2023-04-26T09:22:28.791Z,95063.00
2023-04-26T09:23:28.789Z,95067.00
2023-04-26T09:24:29.023Z,95067.00
2023-04-26T09:25:28.779Z,95067.00
2023-04-26T09:26:28.764Z,95069.00
2023-04-26T09:27:28.741Z,95063.00
2023-04-26T09:28:28.766Z,95065.00
2023-04-26T09:29:29.015Z,95063.00
2023-04-26T09:30:28.802Z,95065.00
2023-04-26T09:31:29.076Z,95057.00
2023-04-26T09:32:28.810Z,95055.00
2023-04-26T09:33:29.276Z,95057.00
2023-04-26T09:34:29.237Z,95055.00
2023-04-26T09:35:29.251Z,95053.00
2023-04-26T09:36:29.533Z,95049.00
2023-04-26T09:37:29.211Z,95053.00
2023-04-26T09:38:29.208Z,95051.00
2023-04-26T09:39:29.246Z,95047.00
2023-04-26T09:40:29.191Z,95047.00
2023-04-26T09:41:29.529Z,95043.00
2023-04-26T09:42:29.242Z,95045.00
2023-04-26T09:43:29.244Z,95045.00
2023-04-26T09:44:29.242Z,95041.00
2023-04-26T09:45:29.528Z,95041.00
2023-04-26T09:46:29.363Z,95041.00
2023-04-26T09:47:29.280Z,95039.00
2023-04-26T09:48:29.288Z,95043.00
2023-04-26T09:49:32.718Z,95037.00
2023-04-26T09:50:29.263Z,95035.00
2023-04-26T09:51:29.525Z,95037.00
2023-04-26T09:52:29.232Z,95033.00
2023-04-26T09:53:29.219Z,95033.00
2023-04-26T09:54:29.175Z,95033.00
2023-04-26T09:55:34.636Z,95033.00
2023-04-26T09:56:29.568Z,95031.00
2023-04-26T09:57:29.157Z,95029.00
2023-04-26T09:58:29.096Z,95029.00
2023-04-26T09:59:29.083Z,95029.00
2023-04-26T10:00:29.553Z,95027.00
2023-04-26T10:01:30.089Z,95029.00
2023-04-26T10:02:29.116Z,95027.00
2023-04-26T10:03:29.212Z,95023.00
2023-04-26T10:04:29.412Z,95023.00
2023-04-26T10:05:30.024Z,95021.00
2023-04-26T10:06:29.026Z,95021.00
2023-04-26T10:07:28.911Z,95025.00
2023-04-26T10:08:29.255Z,95023.00
2023-04-26T10:09:29.110Z,95023.00
2023-04-26T10:10:28.827Z,95020.00
2023-04-26T10:11:29.037Z,95020.00
2023-04-26T10:12:28.833Z,95018.00
2023-04-26T10:13:28.772Z,95020.00
2023-04-26T10:14:28.745Z,95020.00
2023-04-26T10:15:28.716Z,95021.00
2023-04-26T10:16:29.335Z,95020.00
2023-04-26T10:17:29.241Z,95018.00
2023-04-26T10:18:28.658Z,95020.00
2023-04-26T10:19:29.362Z,95016.00
2023-04-26T10:20:28.606Z,95016.00
2023-04-26T10:21:28.582Z,95012.00
2023-04-26T10:22:29.274Z,95010.00
2023-04-26T10:23:28.527Z,95010.00
2023-04-26T10:24:28.517Z,95008.00
2023-04-26T10:25:28.476Z,95006.00
2023-04-26T10:26:28.543Z,95000.00
2023-04-26T10:27:28.447Z,95000.00
2023-04-26T10:28:28.416Z,95000.00
2023-04-26T10:29:28.479Z,94998.00
2023-04-26T10:30:28.744Z,94996.00
2023-04-26T10:31:29.035Z,94994.00
2023-04-26T10:32:28.775Z,94992.00
2023-04-26T10:33:28.701Z,94994.00
2023-04-26T10:34:28.368Z,94990.00
2023-04-26T10:35:28.660Z,94990.00
2023-04-26T10:36:28.542Z,94990.00
2023-04-26T10:37:28.182Z,94988.00
2023-04-26T10:38:28.892Z,94988.00
2023-04-26T10:39:28.669Z,94988.00
2023-04-26T10:40:28.573Z,94990.00
2023-04-26T10:41:28.657Z,94986.00
2023-04-26T10:42:28.961Z,94988.00
2023-04-26T10:43:28.775Z,94982.00
2023-04-26T10:44:28.759Z,94980.00
2023-04-26T10:45:28.797Z,94980.00
2023-04-26T10:46:28.828Z,94978.00
2023-04-26T10:47:28.998Z,94976.00
2023-04-26T10:48:28.885Z,94976.00
2023-04-26T10:49:28.853Z,94973.00
2023-04-26T10:50:28.502Z,94971.00
2023-04-26T10:51:28.553Z,94965.00
2023-04-26T10:52:28.566Z,94963.00
2023-04-26T10:53:28.585Z,94963.00
2023-04-26T10:54:28.622Z,94961.00
2023-04-26T10:55:28.636Z,94967.00
2023-04-26T10:56:28.680Z,94969.00
2023-04-26T10:57:29.314Z,94971.00
2023-04-26T10:58:28.711Z,94967.00
2023-04-26T10:59:43.167Z,94963.00
2023-04-26T11:00:31.371Z,94963.00
2023-04-26T11:01:28.724Z,94963.00
2023-04-26T11:02:28.784Z,94965.00
2023-04-26T11:03:29.216Z,94963.00
2023-04-26T11:04:28.728Z,94963.00
2023-04-26T11:05:28.604Z,94959.00
2023-04-26T11:06:29.065Z,94959.00
2023-04-26T11:07:28.620Z,94955.00
2023-04-26T11:08:29.054Z,94951.00
2023-04-26T11:09:29.575Z,94947.00
2023-04-26T11:10:28.642Z,94947.00
2023-04-26T11:11:28.637Z,94947.00
2023-04-26T11:12:28.647Z,94947.00
2023-04-26T11:13:28.655Z,94947.00
2023-04-26T11:14:28.650Z,94947.00
2023-04-26T11:15:29.562Z,94945.00
2023-04-26T11:16:29.207Z,94945.00
2023-04-26T11:17:29.377Z,94945.00
2023-04-26T11:18:28.605Z,94945.00
2023-04-26T11:19:28.587Z,94945.00
2023-04-26T11:20:29.085Z,94945.00
2023-04-26T11:21:28.569Z,94943.00
2023-04-26T11:22:28.548Z,94947.00
2023-04-26T11:23:28.577Z,94947.00
2023-04-26T11:24:28.513Z,94943.00
2023-04-26T11:25:28.576Z,94939.00
2023-04-26T11:26:28.498Z,94939.00
2023-04-26T11:27:28.493Z,94939.00
2023-04-26T11:28:28.475Z,94937.00
2023-04-26T11:29:28.506Z,94929.00
2023-04-26T11:30:28.575Z,94931.00
2023-04-26T11:31:28.588Z,94931.00
2023-04-26T11:32:28.628Z,94931.00
2023-04-26T11:33:28.637Z,94929.00
2023-04-26T11:34:28.666Z,94933.00
2023-04-26T11:35:31.626Z,94935.00
2023-04-26T11:36:28.671Z,94935.00
2023-04-26T11:37:28.640Z,94931.00
2023-04-26T11:38:28.613Z,94931.00
2023-04-26T11:39:28.600Z,94927.00
2023-04-26T11:40:28.570Z,94920.00
2023-04-26T11:41:28.521Z,94926.00
2023-04-26T11:42:28.494Z,94922.00
2023-04-26T11:43:28.534Z,94927.00
2023-04-26T11:44:28.444Z,94924.00
2023-04-26T11:45:28.580Z,94924.00
2023-04-26T11:46:28.419Z,94924.00
2023-04-26T11:47:28.350Z,94924.00